Time;durP1;ratioP1;P1;durP2;ratioP2;P2;SDS_P1;SDS_P2;PMS_P1;PMS_P2;Temp;Humidity;BMP_temperature;BMP_pressure;BME280_temperature;BME280_humidity;BME280_pressure;Samples;Min_cycle;Max_cycle;Signal;HPM_P1;HPM_P2
2022/07/29 00:00:44;;;;;;;4.97;0.90;;;14.90;99.90;;;;;;5155822;27;20393;-80
2022/07/29 00:03:13;;;;;;;4.68;0.85;;;14.90;99.90;;;;;;5153552;27;20427;-80
2022/07/29 00:05:40;;;;;;;1.25;0.70;;;14.90;99.90;;;;;;5137105;27;20062;-80
2022/07/29 00:08:07;;;;;;;4.43;0.90;;;14.90;99.90;;;;;;5137197;27;20042;-80
2022/07/29 00:10:33;;;;;;;3.92;1.00;;;14.90;99.90;;;;;;5153989;27;20050;-81
2022/07/29 00:12:59;;;;;;;2.22;0.95;;;15.00;99.90;;;;;;5155617;27;20043;-82
2022/07/29 00:15:25;;;;;;;4.13;0.77;;;14.90;99.90;;;;;;5154434;27;20042;-80
2022/07/29 00:17:51;;;;;;;2.28;1.00;;;14.90;99.90;;;;;;5154490;27;20045;-80
2022/07/29 00:20:17;;;;;;;3.00;0.90;;;14.90;99.90;;;;;;5154273;27;20053;-80
2022/07/29 00:22:42;;;;;;;2.50;0.70;;;14.90;99.90;;;;;;5155773;27;20035;-81
2022/07/29 00:25:08;;;;;;;3.25;0.88;;;14.90;99.90;;;;;;5142976;27;20047;-80
2022/07/29 00:27:35;;;;;;;6.07;1.00;;;14.90;99.90;;;;;;5134571;27;20042;-80
2022/07/29 00:30:02;;;;;;;2.63;0.60;;;14.90;99.90;;;;;;5129088;27;20102;-80
2022/07/29 00:32:28;;;;;;;3.80;0.88;;;14.90;99.90;;;;;;5154465;27;20030;-81
2022/07/29 00:37:38;;;;;;;2.77;1.00;;;14.90;99.90;;;;;;5155215;27;20049;-80
2022/07/29 00:40:04;;;;;;;2.70;0.80;;;14.90;99.90;;;;;;5153555;27;20047;-80
2022/07/29 00:42:29;;;;;;;3.70;0.88;;;14.90;99.90;;;;;;5153341;27;20494;-80
2022/07/29 00:44:55;;;;;;;3.75;1.00;;;14.90;99.90;;;;;;5153652;27;20077;-80
2022/07/29 00:47:21;;;;;;;0.68;0.57;;;14.90;99.90;;;;;;5137849;27;20181;-80
2022/07/29 00:49:47;;;;;;;2.83;1.00;;;14.90;99.90;;;;;;5135252;27;20035;-80
2022/07/29 00:52:13;;;;;;;4.65;1.10;;;14.90;99.90;;;;;;5135907;27;20039;-80
2022/07/29 00:54:39;;;;;;;5.30;1.13;;;14.90;99.90;;;;;;5154221;27;20102;-81
2022/07/29 00:57:07;;;;;;;2.40;0.65;;;14.90;99.90;;;;;;5156517;27;20039;-80
2022/07/29 00:59:34;;;;;;;7.38;1.52;;;14.90;99.90;;;;;;5158487;27;20491;-80
2022/07/29 01:02:00;;;;;;;3.90;1.20;;;14.90;99.90;;;;;;5158135;27;20049;-81
2022/07/29 01:04:26;;;;;;;5.38;1.20;;;14.90;99.90;;;;;;5159240;27;20051;-82
2022/07/29 01:06:53;;;;;;;3.22;0.98;;;14.90;99.90;;;;;;5157365;27;20095;-80
2022/07/29 01:09:20;;;;;;;3.85;0.85;;;14.90;99.90;;;;;;5159028;27;20046;-81
2022/07/29 01:11:50;;;;;;;2.50;0.90;;;14.90;99.90;;;;;;5157842;27;20089;-82
2022/07/29 01:14:16;;;;;;;6.43;1.30;;;14.90;99.90;;;;;;5139622;27;20497;-80
2022/07/29 01:17:10;;;;;;;1.33;0.73;;;14.90;99.90;;;;;;5158138;27;20050;-80
2022/07/29 01:19:55;;;;;;;4.55;1.08;;;14.90;99.90;;;;;;5140567;27;20394;-81
2022/07/29 01:22:24;;;;;;;7.50;1.20;;;14.80;99.90;;;;;;5138755;27;20506;-81
2022/07/29 01:25:10;;;;;;;4.03;1.30;;;14.80;99.90;;;;;;5158883;27;20050;-80
2022/07/29 01:27:55;;;;;;;2.83;0.88;;;14.80;99.90;;;;;;5139508;27;20051;-80
2022/07/29 01:30:24;;;;;;;2.17;0.85;;;14.80;99.90;;;;;;5157583;27;20046;-80
2022/07/29 01:32:54;;;;;;;4.72;1.17;;;14.80;99.90;;;;;;5140227;27;20045;-81
2022/07/29 01:35:26;;;;;;;3.75;1.10;;;14.80;99.90;;;;;;5138099;27;20552;-81
2022/07/29 01:37:55;;;;;;;3.45;1.10;;;14.80;99.90;;;;;;5140207;27;20122;-81
2022/07/29 01:40:33;;;;;;;6.35;1.10;;;14.70;99.90;;;;;;5138460;27;20052;-81
2022/07/29 01:43:03;;;;;;;1.88;0.70;;;14.70;99.90;;;;;;5156599;27;20051;-82
2022/07/29 01:45:43;;;;;;;3.45;0.85;;;14.70;99.90;;;;;;5157394;27;20035;-81
2022/07/29 01:48:19;;;;;;;2.47;0.77;;;14.70;99.90;;;;;;5139957;27;20083;-81
2022/07/29 01:51:02;;;;;;;3.47;0.90;;;14.70;99.90;;;;;;5156196;27;20043;-81
2022/07/29 01:53:38;;;;;;;3.83;1.05;;;14.70;99.90;;;;;;5140060;27;20046;-81
2022/07/29 01:56:08;;;;;;;5.10;1.58;;;14.70;99.90;;;;;;5137754;27;20039;-81
2022/07/29 01:58:36;;;;;;;3.55;1.10;;;14.60;99.90;;;;;;5139667;27;20061;-81
2022/07/29 02:01:03;;;;;;;8.27;1.48;;;14.60;99.90;;;;;;5138608;27;20385;-81
2022/07/29 02:03:31;;;;;;;2.20;1.10;;;14.70;99.90;;;;;;5157020;27;20107;-83
2022/07/29 02:06:03;;;;;;;3.80;1.00;;;14.70;99.90;;;;;;5138458;27;20526;-81
2022/07/29 02:08:30;;;;;;;2.75;1.05;;;14.60;99.90;;;;;;5138486;27;20053;-81
2022/07/29 02:10:57;;;;;;;4.68;1.30;;;14.70;99.90;;;;;;5155796;27;20117;-81
2022/07/29 02:13:25;;;;;;;2.65;1.15;;;14.60;99.90;;;;;;5157688;27;20035;-81
2022/07/29 02:15:53;;;;;;;4.97;1.15;;;14.70;99.90;;;;;;5156794;27;20488;-81
2022/07/29 02:18:22;;;;;;;2.25;0.98;;;14.60;99.90;;;;;;5138088;27;20501;-81
2022/07/29 02:20:50;;;;;;;4.55;1.13;;;14.60;99.90;;;;;;5137886;27;20057;-80
2022/07/29 02:23:20;;;;;;;2.42;1.08;;;14.60;99.90;;;;;;5157736;27;20058;-81
2022/07/29 02:25:50;;;;;;;5.32;1.27;;;14.60;99.90;;;;;;5137161;27;20411;-81
2022/07/29 02:28:17;;;;;;;3.80;1.10;;;14.60;99.90;;;;;;5133181;27;20039;-80
2022/07/29 02:30:45;;;;;;;3.80;1.35;;;14.60;99.90;;;;;;5133378;27;20389;-82
2022/07/29 02:33:15;;;;;;;4.32;1.17;;;14.60;99.90;;;;;;5157446;27;20533;-80
2022/07/29 02:35:42;;;;;;;3.40;1.40;;;14.60;99.90;;;;;;5137992;27;20058;-80
2022/07/29 02:40:58;;;;;;;4.40;1.20;;;14.50;99.90;;;;;;5156050;27;20046;-81
2022/07/29 02:43:25;;;;;;;9.50;1.92;;;14.50;99.90;;;;;;5138799;27;20046;-80
2022/07/29 02:45:54;;;;;;;3.55;1.48;;;14.40;99.90;;;;;;5155287;27;20079;-81
2022/07/29 02:48:34;;;;;;;5.43;1.40;;;14.50;99.90;;;;;;5157234;27;20037;-80
2022/07/29 02:51:08;;;;;;;6.25;1.30;;;14.50;99.90;;;;;;5155967;27;20043;-81
2022/07/29 02:53:36;;;;;;;3.83;1.27;;;14.50;99.90;;;;;;5155024;27;20489;-81
2022/07/29 02:56:09;;;;;;;4.57;1.42;;;14.50;99.90;;;;;;5156704;27;20504;-81
2022/07/29 02:58:40;;;;;;;5.00;1.58;;;14.40;99.90;;;;;;5155940;27;20121;-81
2022/07/29 03:01:16;;;;;;;5.75;1.40;;;14.40;99.90;;;;;;5155686;27;20039;-81
2022/07/29 03:03:46;;;;;;;3.67;1.42;;;14.40;99.90;;;;;;5138295;27;20050;-81
2022/07/29 03:06:14;;;;;;;4.28;1.52;;;14.50;99.90;;;;;;5154713;27;20042;-80
2022/07/29 03:08:40;;;;;;;3.17;1.30;;;14.40;99.90;;;;;;5138285;27;20050;-80
2022/07/29 03:11:08;;;;;;;3.75;1.20;;;14.40;99.90;;;;;;5154638;27;20042;-81
2022/07/29 03:13:35;;;;;;;3.90;1.40;;;14.40;99.90;;;;;;5154878;27;20038;-81
2022/07/29 03:16:02;;;;;;;5.05;2.33;;;14.40;99.90;;;;;;5138010;27;20061;-80
2022/07/29 03:18:28;;;;;;;3.00;1.20;;;14.50;99.90;;;;;;5136949;27;20051;-80
2022/07/29 03:20:54;;;;;;;3.00;1.23;;;14.50;99.90;;;;;;5116602;27;20058;-81
2022/07/29 03:23:22;;;;;;;5.50;1.45;;;14.40;99.90;;;;;;5135782;27;20035;-81
2022/07/29 03:25:49;;;;;;;2.80;1.33;;;14.40;99.90;;;;;;5154760;27;20042;-81
2022/07/29 03:28:15;;;;;;;6.13;1.63;;;14.50;99.90;;;;;;5155570;27;20118;-82
2022/07/29 03:30:41;;;;;;;5.85;1.55;;;14.50;99.90;;;;;;5138101;27;20450;-82
2022/07/29 03:33:07;;;;;;;2.42;1.00;;;14.50;99.90;;;;;;5135638;27;20039;-82
2022/07/29 03:35:32;;;;;;;3.95;1.20;;;14.50;99.90;;;;;;5131804;27;20042;-81
2022/07/29 03:37:59;;;;;;;4.60;1.67;;;14.50;99.90;;;;;;5155935;27;20053;-81
2022/07/29 03:40:31;;;;;;;3.20;1.30;;;14.50;99.90;;;;;;5134999;27;20046;-80
2022/07/29 03:43:00;;;;;;;3.20;1.10;;;14.50;99.90;;;;;;5119754;27;20435;-80
2022/07/29 03:45:26;;;;;;;4.25;1.80;;;14.50;99.90;;;;;;5155375;27;20042;-81
2022/07/29 03:47:57;;;;;;;5.25;1.90;;;14.50;99.90;;;;;;5154946;27;20042;-81
2022/07/29 03:50:23;;;;;;;9.93;1.50;;;14.50;99.90;;;;;;5137503;27;20122;-81
2022/07/29 03:52:49;;;;;;;3.70;1.00;;;14.50;99.90;;;;;;5136548;27;20134;-80
2022/07/29 03:55:15;;;;;;;3.60;1.20;;;14.50;99.90;;;;;;5120771;27;20047;-81
2022/07/29 03:57:42;;;;;;;3.00;1.42;;;14.50;99.90;;;;;;5135133;27;20035;-81
2022/07/29 04:00:09;;;;;;;3.35;1.63;;;14.50;99.90;;;;;;5154958;27;20042;-81
2022/07/29 04:02:36;;;;;;;2.47;1.00;;;14.50;99.90;;;;;;5154917;27;20056;-81
2022/07/29 04:05:02;;;;;;;2.30;1.35;;;14.50;99.90;;;;;;5154577;27;20038;-81
2022/07/29 04:07:27;;;;;;;5.53;1.45;;;14.50;99.90;;;;;;5136276;27;20035;-80
2022/07/29 04:09:53;;;;;;;4.75;1.30;;;14.50;99.90;;;;;;5154824;27;20068;-81
2022/07/29 04:12:20;;;;;;;5.28;1.48;;;14.50;99.90;;;;;;5154785;27;20042;-81
2022/07/29 04:14:46;;;;;;;4.60;1.30;;;14.50;99.90;;;;;;5154707;27;20099;-81
2022/07/29 04:17:12;;;;;;;3.33;1.20;;;14.50;99.90;;;;;;5134967;27;20074;-82
2022/07/29 04:19:38;;;;;;;2.38;1.30;;;14.50;99.90;;;;;;5155535;27;20093;-81
2022/07/29 04:22:04;;;;;;;2.00;1.00;;;14.50;99.90;;;;;;5136024;27;20042;-81
2022/07/29 04:24:29;;;;;;;1.80;0.90;;;14.50;99.90;;;;;;5154762;27;20393;-81
2022/07/29 04:26:55;;;;;;;4.60;1.23;;;14.50;99.90;;;;;;5135750;27;20043;-81
2022/07/29 04:29:21;;;;;;;6.82;1.23;;;14.50;99.90;;;;;;5136872;27;20046;-81
2022/07/29 04:31:47;;;;;;;3.45;1.15;;;14.40;99.90;;;;;;5134063;27;20038;-81
2022/07/29 04:34:13;;;;;;;5.55;1.50;;;14.50;99.90;;;;;;5155249;27;20401;-80
2022/07/29 04:36:39;;;;;;;5.90;1.67;;;14.40;99.90;;;;;;5146927;27;20397;-80
2022/07/29 04:39:05;;;;;;;4.00;1.27;;;14.40;99.90;;;;;;5140801;27;20036;-81
2022/07/29 04:41:30;;;;;;;4.80;1.40;;;14.50;99.90;;;;;;5116136;28;20050;-81
2022/07/29 04:43:56;;;;;;;5.57;1.38;;;14.50;99.90;;;;;;5124526;27;20035;-81
2022/07/29 04:46:22;;;;;;;5.10;1.02;;;14.40;99.90;;;;;;5154228;27;20042;-81
2022/07/29 04:48:48;;;;;;;2.30;1.02;;;14.50;99.90;;;;;;5135253;27;20514;-82
2022/07/29 04:51:15;;;;;;;6.05;1.50;;;14.50;99.90;;;;;;5118399;27;20051;-81
2022/07/29 04:53:41;;;;;;;9.00;1.30;;;14.40;99.90;;;;;;5153953;27;20039;-80
2022/07/29 04:56:07;;;;;;;5.22;1.20;;;14.50;99.90;;;;;;5119535;27;20039;-81
2022/07/29 04:58:36;;;;;;;5.13;1.50;;;14.50;99.90;;;;;;5134832;27;20035;-80
2022/07/29 05:01:02;;;;;;;7.20;1.13;;;14.50;99.90;;;;;;5136546;27;20600;-81
2022/07/29 05:03:28;;;;;;;2.78;1.10;;;14.50;99.90;;;;;;5153741;27;20039;-81
2022/07/29 05:05:53;;;;;;;9.73;1.00;;;14.50;99.90;;;;;;5154380;27;20485;-81
2022/07/29 05:08:19;;;;;;;4.22;1.05;;;14.50;99.90;;;;;;5134979;27;20046;-81
2022/07/29 05:10:45;;;;;;;7.18;1.17;;;14.50;99.90;;;;;;5115947;28;20074;-80
2022/07/29 05:13:11;;;;;;;4.60;1.10;;;14.50;99.90;;;;;;5116241;27;20043;-80
2022/07/29 05:15:37;;;;;;;5.80;1.30;;;14.50;99.90;;;;;;5136365;27;20442;-81
2022/07/29 05:18:04;;;;;;;4.95;1.10;;;14.60;99.90;;;;;;5135261;27;20049;-81
2022/07/29 05:20:30;;;;;;;2.80;1.20;;;14.60;99.90;;;;;;5134811;27;20400;-81
2022/07/29 05:22:58;;;;;;;4.03;1.48;;;14.60;99.90;;;;;;5153838;27;20118;-81
2022/07/29 05:25:25;;;;;;;3.00;1.10;;;14.60;99.90;;;;;;5136391;27;20047;-81
2022/07/29 05:27:52;;;;;;;4.30;1.13;;;14.70;99.90;;;;;;5152923;27;20046;-81
2022/07/29 05:30:18;;;;;;;6.50;1.30;;;14.70;99.90;;;;;;5154943;27;20102;-81
2022/07/29 05:32:44;;;;;;;3.80;1.23;;;14.70;99.90;;;;;;5153290;27;20050;-81
2022/07/29 05:35:10;;;;;;;11.35;1.30;;;14.70;99.90;;;;;;5153838;27;20046;-81
2022/07/29 05:37:36;;;;;;;1.55;1.00;;;14.80;99.90;;;;;;5134913;27;20050;-81
2022/07/29 05:40:02;;;;;;;8.82;1.70;;;14.80;99.90;;;;;;5136153;27;20046;-81
2022/07/29 05:42:29;;;;;;;6.57;1.40;;;14.80;99.90;;;;;;5134591;27;20134;-81
2022/07/29 05:44:55;;;;;;;5.20;1.15;;;14.80;99.90;;;;;;5158641;27;20099;-81
2022/07/29 05:47:21;;;;;;;4.07;1.38;;;14.80;99.90;;;;;;5145029;27;20143;-81
2022/07/29 05:49:46;;;;;;;4.55;1.30;;;14.90;99.90;;;;;;5118680;27;20533;-81
2022/07/29 05:52:15;;;;;;;7.53;1.40;;;14.90;99.90;;;;;;5139590;27;20079;-81
2022/07/29 05:54:41;;;;;;;3.47;1.38;;;14.90;99.90;;;;;;5136730;27;20060;-81
2022/07/29 05:57:07;;;;;;;2.55;1.20;;;14.90;99.90;;;;;;5148020;27;20125;-81
2022/07/29 05:59:37;;;;;;;2.45;1.40;;;14.90;99.90;;;;;;5155788;27;20146;-81
2022/07/29 06:02:04;;;;;;;4.13;1.42;;;15.00;99.90;;;;;;5137604;27;20055;-81
2022/07/29 06:04:31;;;;;;;8.45;1.73;;;15.10;99.90;;;;;;5157071;27;20066;-83
2022/07/29 06:06:57;;;;;;;2.63;1.30;;;15.10;99.90;;;;;;5158056;27;20489;-81
2022/07/29 06:09:23;;;;;;;2.95;1.27;;;15.20;99.90;;;;;;5137742;27;20122;-81
2022/07/29 06:11:48;;;;;;;5.13;1.30;;;15.20;99.90;;;;;;5157934;27;20477;-81
2022/07/29 06:14:14;;;;;;;5.65;1.25;;;15.30;99.90;;;;;;5138739;27;20043;-81
2022/07/29 06:16:40;;;;;;;6.00;1.40;;;15.30;99.90;;;;;;5138114;27;20053;-80
2022/07/29 06:19:06;;;;;;;4.82;1.52;;;15.40;99.90;;;;;;5157508;27;20413;-81
2022/07/29 06:21:33;;;;;;;4.93;1.30;;;15.50;99.90;;;;;;5138405;27;20065;-81
2022/07/29 06:23:59;;;;;;;6.75;1.33;;;15.60;99.90;;;;;;5135585;27;20122;-81
2022/07/29 06:26:25;;;;;;;8.88;1.27;;;15.70;99.90;;;;;;5137766;27;20159;-81
2022/07/29 06:28:51;;;;;;;5.95;1.33;;;15.70;99.90;;;;;;5157486;27;20129;-80
2022/07/29 06:31:16;;;;;;;4.95;1.17;;;15.70;99.90;;;;;;5146854;27;20075;-82
2022/07/29 06:33:42;;;;;;;5.00;1.40;;;15.70;99.90;;;;;;5147282;27;20039;-81
2022/07/29 06:36:08;;;;;;;3.75;1.17;;;15.70;99.90;;;;;;5138902;27;20106;-80
2022/07/29 06:38:34;;;;;;;4.03;1.50;;;15.70;99.90;;;;;;5154982;27;20481;-81
2022/07/29 06:41:01;;;;;;;10.95;2.45;;;15.70;99.90;;;;;;5138888;27;20057;-81
2022/07/29 06:43:33;;;;;;;4.70;1.33;;;15.70;99.90;;;;;;5136460;27;20053;-80
2022/07/29 06:46:04;;;;;;;3.38;1.20;;;15.70;99.90;;;;;;5135917;27;20387;-82
2022/07/29 06:48:30;;;;;;;7.97;1.40;;;15.70;99.90;;;;;;5141262;27;20386;-81
2022/07/29 06:50:56;;;;;;;5.78;2.10;;;15.70;99.90;;;;;;5156432;27;20041;-82
2022/07/29 06:53:22;;;;;;;3.70;1.30;;;15.70;99.90;;;;;;5137739;27;20416;-81
2022/07/29 06:55:47;;;;;;;2.72;1.25;;;15.70;99.90;;;;;;5138142;27;20039;-81
2022/07/29 06:58:15;;;;;;;6.75;2.50;;;15.80;99.90;;;;;;5133616;27;20047;-81
2022/07/29 07:00:42;;;;;;;9.18;1.30;;;15.80;99.90;;;;;;5138358;27;20462;-81
2022/07/29 07:03:07;;;;;;;7.63;1.65;;;15.80;99.90;;;;;;5117990;27;20050;-81
2022/07/29 07:05:33;;;;;;;6.45;1.30;;;15.90;99.90;;;;;;5135234;27;20043;-81
2022/07/29 07:07:59;;;;;;;5.93;1.92;;;16.00;99.90;;;;;;5119669;27;20488;-81
2022/07/29 07:10:25;;;;;;;6.55;1.20;;;16.00;99.90;;;;;;5117666;27;20043;-82
2022/07/29 07:12:50;;;;;;;6.10;1.50;;;16.10;99.90;;;;;;5130054;27;20130;-81
2022/07/29 07:15:16;;;;;;;5.95;1.55;;;16.20;99.90;;;;;;5136953;27;20039;-82
2022/07/29 07:17:42;;;;;;;3.75;1.33;;;16.20;99.90;;;;;;5137785;27;20050;-82
2022/07/29 07:20:08;;;;;;;3.83;1.30;;;16.20;99.90;;;;;;5135808;27;20057;-80
2022/07/29 07:22:34;;;;;;;8.60;1.52;;;16.20;99.90;;;;;;5137985;27;20051;-82
2022/07/29 07:25:00;;;;;;;4.35;1.48;;;16.20;99.90;;;;;;5136827;27;20038;-81
2022/07/29 07:27:27;;;;;;;2.60;1.77;;;16.20;99.90;;;;;;5155753;27;20050;-80
2022/07/29 07:29:52;;;;;;;4.10;1.20;;;16.30;99.90;;;;;;5136960;27;20444;-81
2022/07/29 07:32:19;;;;;;;6.10;1.30;;;16.30;99.90;;;;;;5137993;27;20038;-81
2022/07/29 07:34:45;;;;;;;5.95;1.33;;;16.40;99.90;;;;;;5135956;27;20066;-81
2022/07/29 07:37:10;;;;;;;3.47;1.42;;;16.40;99.90;;;;;;5156430;27;20034;-83
2022/07/29 07:39:36;;;;;;;9.60;1.73;;;16.50;99.90;;;;;;5136673;27;20500;-81
2022/07/29 07:42:02;;;;;;;3.70;1.33;;;16.50;99.90;;;;;;5154364;27;20054;-80
2022/07/29 07:44:28;;;;;;;3.92;1.50;;;16.60;99.90;;;;;;5142494;27;20047;-81
2022/07/29 07:46:53;;;;;;;7.65;1.52;;;16.70;99.90;;;;;;5152105;27;20027;-80
2022/07/29 07:49:19;;;;;;;10.02;1.67;;;16.70;99.90;;;;;;5155323;27;20473;-82
2022/07/29 07:51:45;;;;;;;3.38;1.40;;;16.80;99.90;;;;;;5136364;27;20034;-80
2022/07/29 07:54:11;;;;;;;7.18;1.63;;;16.80;99.90;;;;;;5155052;27;20042;-82
2022/07/29 07:56:36;;;;;;;3.13;1.30;;;16.80;99.90;;;;;;5136691;27;20043;-81
2022/07/29 07:59:02;;;;;;;3.78;1.70;;;16.90;99.90;;;;;;5155992;27;20041;-82
2022/07/29 08:01:28;;;;;;;9.18;1.70;;;16.90;99.90;;;;;;5135743;27;20379;-82
2022/07/29 08:03:54;;;;;;;9.38;1.50;;;17.00;99.90;;;;;;5136351;27;20092;-81
2022/07/29 08:06:20;;;;;;;4.90;1.17;;;17.00;99.90;;;;;;5138202;27;20396;-81
2022/07/29 08:08:45;;;;;;;6.88;1.83;;;17.00;99.90;;;;;;5134315;27;20514;-80
2022/07/29 08:11:11;;;;;;;3.38;1.20;;;17.00;99.90;;;;;;5118988;27;20058;-80
2022/07/29 08:13:38;;;;;;;6.15;1.20;;;17.10;99.90;;;;;;5137105;27;20054;-84
2022/07/29 08:16:14;;;;;;;3.70;1.15;;;17.10;99.90;;;;;;5153191;27;20548;-81
2022/07/29 08:18:41;;;;;;;4.63;1.45;;;17.10;99.90;;;;;;5116385;27;20051;-81
2022/07/29 08:21:07;;;;;;;6.15;1.38;;;17.10;99.90;;;;;;5135814;27;20043;-83
2022/07/29 08:23:39;;;;;;;7.35;1.50;;;17.10;99.90;;;;;;5135794;27;20130;-82
2022/07/29 08:26:12;;;;;;;4.22;1.52;;;17.10;99.90;;;;;;5154646;27;20113;-82
2022/07/29 08:28:38;;;;;;;5.38;1.77;;;17.10;99.90;;;;;;5154688;27;20392;-79
2022/07/29 08:31:04;;;;;;;4.25;1.48;;;17.10;99.90;;;;;;5154250;27;20050;-83
2022/07/29 08:33:30;;;;;;;3.33;1.48;;;17.10;99.90;;;;;;5147093;27;20443;-82
2022/07/29 08:35:56;;;;;;;7.10;1.85;;;17.10;99.90;;;;;;5134578;27;20043;-81
2022/07/29 08:38:22;;;;;;;6.15;1.45;;;17.10;99.90;;;;;;5125579;27;20043;-81
2022/07/29 08:40:48;;;;;;;8.82;1.70;;;17.10;99.90;;;;;;5136611;27;20043;-81
2022/07/29 08:43:14;;;;;;;4.75;1.67;;;17.00;99.90;;;;;;5135431;27;20057;-85
2022/07/29 08:45:48;;;;;;;7.95;1.55;;;17.00;99.90;;;;;;5152823;27;20117;-81
2022/07/29 08:48:16;;;;;;;3.28;1.58;;;17.00;99.90;;;;;;5128176;28;20112;-81
2022/07/29 08:50:43;;;;;;;3.25;1.40;;;17.00;99.90;;;;;;5134201;27;20043;-81
2022/07/29 08:53:14;;;;;;;6.63;2.00;;;17.00;99.90;;;;;;5134580;27;20078;-81
2022/07/29 08:55:45;;;;;;;2.53;1.50;;;17.00;99.90;;;;;;5134420;28;20412;-81
2022/07/29 08:58:11;;;;;;;3.47;1.95;;;17.00;99.90;;;;;;5141740;27;20039;-82
2022/07/29 09:00:45;;;;;;;5.28;1.50;;;17.00;99.90;;;;;;5136538;27;20043;-80
2022/07/29 09:03:15;;;;;;;3.10;1.38;;;17.00;99.90;;;;;;5134399;28;20050;-80
2022/07/29 09:05:46;;;;;;;4.55;1.90;;;17.00;99.90;;;;;;5136098;27;20072;-79
2022/07/29 09:08:13;;;;;;;7.30;1.80;;;17.00;99.90;;;;;;5154882;27;20108;-80
2022/07/29 09:10:39;;;;;;;8.23;1.75;;;17.00;99.90;;;;;;5152680;27;20076;-80
2022/07/29 09:13:05;;;;;;;2.42;1.30;;;17.00;99.90;;;;;;5126288;28;20044;-81
2022/07/29 09:15:31;;;;;;;9.18;1.80;;;17.00;99.90;;;;;;5116071;28;20043;-80
2022/07/29 09:17:58;;;;;;;8.55;1.80;;;17.00;99.90;;;;;;5149036;27;20099;-80
2022/07/29 09:20:25;;;;;;;5.07;1.55;;;17.10;99.90;;;;;;5153668;27;20046;-81
2022/07/29 09:22:55;;;;;;;3.80;1.60;;;17.10;99.90;;;;;;5140274;27;20078;-83
2022/07/29 09:25:37;;;;;;;7.82;1.90;;;17.10;99.90;;;;;;5138852;27;20039;-80
2022/07/29 09:28:14;;;;;;;7.78;2.13;;;17.20;99.90;;;;;;5138697;27;20051;-81
2022/07/29 09:30:53;;;;;;;2.97;1.40;;;17.20;99.90;;;;;;5158836;27;20117;-82
2022/07/29 09:33:20;;;;;;;6.68;1.67;;;17.30;99.90;;;;;;5121411;27;20051;-81
2022/07/29 09:35:45;;;;;;;6.47;1.90;;;17.30;99.90;;;;;;5150273;27;20107;-81
2022/07/29 09:38:14;;;;;;;4.88;2.08;;;17.30;99.90;;;;;;5137711;27;20129;-80
2022/07/29 09:40:40;;;;;;;3.63;1.38;;;17.40;99.90;;;;;;5149075;27;20071;-80
2022/07/29 09:43:13;;;;;;;4.15;1.52;;;17.40;99.90;;;;;;5150155;27;20070;-82
2022/07/29 09:45:39;;;;;;;6.65;2.00;;;17.50;99.90;;;;;;5146636;27;20046;-81
2022/07/29 09:48:37;;;;;;;7.25;1.75;;;17.50;99.90;;;;;;5118582;27;20043;-81
2022/07/29 09:51:05;;;;;;;4.97;1.77;;;17.60;99.90;;;;;;5102929;27;20058;-80
2022/07/29 09:53:33;;;;;;;8.90;2.00;;;17.70;99.90;;;;;;5119141;27;20049;-80
2022/07/29 09:55:59;;;;;;;6.63;1.83;;;17.70;99.90;;;;;;5156779;27;20401;-80
2022/07/29 09:58:24;;;;;;;3.50;1.90;;;17.80;99.90;;;;;;5158109;27;20034;-81
2022/07/29 10:00:52;;;;;;;7.70;1.90;;;17.80;99.90;;;;;;5156420;27;20035;-79
2022/07/29 10:03:19;;;;;;;6.00;2.22;;;17.90;99.90;;;;;;5122700;27;20050;-81
2022/07/29 10:05:46;;;;;;;8.23;1.75;;;18.10;99.90;;;;;;5122839;27;20048;-79
2022/07/29 10:08:12;;;;;;;3.58;1.48;;;18.20;99.90;;;;;;5136554;27;20043;-79
2022/07/29 10:10:41;;;;;;;6.22;1.73;;;18.40;99.90;;;;;;5153437;27;20043;-81
2022/07/29 10:13:08;;;;;;;6.03;1.65;;;18.50;99.90;;;;;;5156850;27;20167;-79
2022/07/29 10:15:38;;;;;;;4.85;1.73;;;18.50;99.90;;;;;;5118188;27;20047;-79
2022/07/29 10:18:09;;;;;;;5.88;1.88;;;18.50;99.90;;;;;;5113753;28;20144;-80
2022/07/29 10:20:35;;;;;;;5.65;1.80;;;18.60;99.90;;;;;;5115231;28;20059;-80
2022/07/29 10:23:01;;;;;;;3.25;1.65;;;18.60;99.90;;;;;;5112184;28;20043;-79
2022/07/29 10:25:27;;;;;;;5.68;1.80;;;18.70;99.90;;;;;;5096089;28;20052;-80
2022/07/29 10:27:54;;;;;;;4.32;2.05;;;18.70;99.90;;;;;;5098392;28;20055;-79
2022/07/29 10:30:21;;;;;;;6.50;1.70;;;18.70;99.90;;;;;;5113029;28;20376;-80
2022/07/29 10:32:56;;;;;;;4.60;2.10;;;18.80;99.90;;;;;;5114821;28;20044;-80
2022/07/29 10:35:34;;;;;;;5.65;1.60;;;18.80;99.90;;;;;;5094825;28;20487;-81
2022/07/29 10:38:18;;;;;;;6.38;1.67;;;18.80;99.90;;;;;;5098008;28;20036;-80
2022/07/29 10:43:53;;;;;;;8.68;1.77;;;18.90;99.90;;;;;;5110882;28;20142;-78
2022/07/29 10:46:20;;;;;;;3.65;1.63;;;18.90;99.90;;;;;;5101656;28;20043;-79
2022/07/29 10:49:16;;;;;;;10.98;2.80;;;19.00;99.90;;;;;;5115988;28;20057;-80
2022/07/29 10:52:11;;;;;;;5.57;1.80;;;19.10;99.90;;;;;;5097024;28;20083;-80
2022/07/29 10:54:44;;;;;;;3.53;1.95;;;19.20;99.90;;;;;;5103828;28;20087;-81
2022/07/29 10:57:32;;;;;;;7.13;1.60;;;19.20;99.90;;;;;;5114213;28;20070;-79
2022/07/29 11:00:13;;;;;;;7.45;1.90;;;19.30;99.90;;;;;;5115818;28;20048;-80
2022/07/29 11:02:44;;;;;;;9.07;2.25;;;19.30;99.90;;;;;;5113589;28;20105;-81
2022/07/29 11:05:18;;;;;;;5.25;1.80;;;19.40;99.90;;;;;;5113599;28;20131;-81
2022/07/29 11:08:12;;;;;;;4.50;1.45;;;19.50;99.90;;;;;;5114565;28;20075;-82
2022/07/29 11:10:38;;;;;;;10.13;2.08;;;19.50;99.90;;;;;;5114519;28;20048;-80
2022/07/29 11:13:04;;;;;;;8.52;1.60;;;19.50;99.90;;;;;;5113259;28;20043;-80
2022/07/29 11:15:53;;;;;;;6.20;1.83;;;19.40;99.90;;;;;;5114398;28;20047;-81
2022/07/29 11:18:19;;;;;;;7.93;2.30;;;19.50;99.90;;;;;;5107456;27;20051;-81
2022/07/29 11:20:49;;;;;;;5.88;2.10;;;19.50;99.90;;;;;;5132911;27;20077;-80
2022/07/29 11:23:28;;;;;;;5.15;1.83;;;19.60;99.90;;;;;;5127209;27;20488;-81
2022/07/29 11:26:16;;;;;;;5.18;1.67;;;19.60;99.90;;;;;;5117992;27;20046;-79
2022/07/29 11:28:48;;;;;;;5.47;1.70;;;19.70;99.90;;;;;;5134759;27;20478;-80
2022/07/29 11:31:41;;;;;;;9.05;2.10;;;19.70;99.90;;;;;;5134396;27;20043;-81
2022/07/29 11:34:35;;;;;;;5.93;1.60;;;19.80;99.90;;;;;;5129475;27;20051;-80
2022/07/29 11:37:07;;;;;;;4.32;1.70;;;19.90;99.90;;;;;;5133265;27;20055;-79
2022/07/29 11:39:34;;;;;;;7.18;1.70;;;20.00;99.90;;;;;;5133251;27;20043;-79
2022/07/29 11:42:25;;;;;;;2.90;1.60;;;20.00;99.90;;;;;;5134486;27;20047;-79
2022/07/29 11:45:05;;;;;;;6.18;1.70;;;20.10;99.90;;;;;;5135568;27;20409;-80
2022/07/29 11:47:34;;;;;;;8.70;2.03;;;20.20;99.90;;;;;;5132237;27;20058;-80
2022/07/29 11:50:02;;;;;;;5.95;1.80;;;20.40;99.90;;;;;;5134251;27;20115;-80
2022/07/29 11:52:37;;;;;;;7.82;1.63;;;20.50;99.90;;;;;;5132736;27;20054;-79
2022/07/29 11:55:05;;;;;;;6.97;1.65;;;20.60;99.90;;;;;;5134482;27;20031;-79
2022/07/29 11:57:33;;;;;;;3.65;1.38;;;20.80;99.90;;;;;;5133876;27;20046;-83
2022/07/29 11:59:59;;;;;;;12.40;1.60;;;20.80;99.90;;;;;;5134176;27;20046;-82
2022/07/29 12:02:41;;;;;;;5.78;1.70;;;20.90;99.90;;;;;;5132915;27;20050;-81
2022/07/29 12:05:09;;;;;;;9.13;2.35;;;21.00;99.90;;;;;;5135176;27;20035;-81
2022/07/29 12:07:36;;;;;;;4.68;1.92;;;21.10;99.90;;;;;;5132798;27;20157;-81
2022/07/29 12:10:03;;;;;;;8.73;2.03;;;21.20;99.90;;;;;;5135117;27;20059;-81
2022/07/29 12:12:29;;;;;;;6.65;1.52;;;21.20;99.90;;;;;;5133560;27;20046;-82
2022/07/29 12:14:55;;;;;;;6.53;1.30;;;21.20;99.90;;;;;;5133920;27;20035;-82
2022/07/29 12:17:32;;;;;;;5.18;1.85;;;21.30;99.90;;;;;;5136921;27;20059;-82
2022/07/29 12:20:02;;;;;;;4.78;1.67;;;21.30;99.90;;;;;;5155733;27;20058;-81
2022/07/29 12:22:31;;;;;;;6.72;1.67;;;21.30;99.90;;;;;;5153681;27;20038;-82
2022/07/29 12:25:02;;;;;;;6.30;1.98;;;21.40;99.90;;;;;;5136916;27;20058;-80
2022/07/29 12:27:29;;;;;;;9.45;2.22;;;21.50;99.90;;;;;;5136047;27;20035;-80
2022/07/29 12:30:10;;;;;;;4.97;1.70;;;21.50;99.90;;;;;;5150875;27;20038;-82
2022/07/29 12:32:45;;;;;;;8.23;2.33;;;21.60;99.90;;;;;;5129834;27;20043;-82
2022/07/29 12:35:16;;;;;;;5.97;1.77;;;21.60;99.90;;;;;;5120978;27;20054;-81
2022/07/29 12:37:44;;;;;;;7.75;1.92;;;21.50;99.90;;;;;;5153596;27;20051;-82
2022/07/29 12:40:16;;;;;;;6.45;1.70;;;21.50;99.90;;;;;;5144540;27;20030;-82
2022/07/29 12:43:07;;;;;;;5.07;1.90;;;21.50;99.90;;;;;;5135887;27;20043;-79
2022/07/29 12:45:33;;;;;;;3.97;1.80;;;21.60;99.90;;;;;;5134530;28;20040;-81
2022/07/29 12:47:58;;;;;;;4.53;1.83;;;21.60;99.90;;;;;;5146195;27;20039;-77
2022/07/29 12:50:24;;;;;;;6.80;2.00;;;21.70;99.90;;;;;;5133707;28;20050;-79
2022/07/29 12:52:50;;;;;;;5.25;1.83;;;21.80;99.90;;;;;;5132286;27;20125;-78
2022/07/29 12:55:36;;;;;;;3.90;2.40;;;21.90;99.90;;;;;;5141135;27;20047;-80
2022/07/29 12:58:02;;;;;;;8.95;2.25;;;21.90;99.90;;;;;;5138738;27;20396;-80
2022/07/29 13:00:28;;;;;;;5.78;2.28;;;22.00;99.90;;;;;;5159514;27;20118;-81
2022/07/29 18:54:30;;;;;;;3.38;1.42;;;21.60;99.90;;;;;;5753901;23;20279;-87